EZY11AQ LROP-LGAV
Flight info
| Callsign | EZY11AQ |
|---|---|
| Flight time | 1h 24m |
| Altitude | 36000 |
| Route | POLUN DCT TIMUR N181 NIKTI DCT KOROS UT162 NEVRA |
| Aircraft | B736/M-SDE2E3FGHIRWXY/LB1 |
Departure
| Time | 2026-05-05 07:27 |
|---|---|
| Airport | Bucharest Henri Coandă International Airport (LROP) |
Arrival
| Time | 2026-05-05 08:52 |
|---|---|
| Airport | Athens Eleftherios Venizelos International Airport (LGAV) |
| Time | Latitude | Longitude | Altitude | Speed | Heading |
|---|---|---|---|---|---|
| 2026-05-05 07:00 | 44.56882 | 26.08810 | 321 ft | 0 kts | 173° |
| 2026-05-05 07:23 | 44.56878 | 26.08811 | 321 ft | 2 kts | 173° |
| 2026-05-05 07:23 | 44.56859 | 26.08814 | 320 ft | 3 kts | 174° |
| 2026-05-05 07:24 | 44.56839 | 26.08801 | 321 ft | 3 kts | 232° |
| 2026-05-05 07:24 | 44.56831 | 26.08759 | 321 ft | 6 kts | 260° |
| 2026-05-05 07:24 | 44.56826 | 26.08693 | 321 ft | 7 kts | 263° |
| 2026-05-05 07:24 | 44.56821 | 26.08626 | 321 ft | 7 kts | 263° |
| 2026-05-05 07:25 | 44.56837 | 26.08567 | 321 ft | 8 kts | 330° |
| 2026-05-05 07:25 | 44.56911 | 26.08552 | 321 ft | 14 kts | 354° |
| 2026-05-05 07:25 | 44.57029 | 26.08535 | 320 ft | 19 kts | 354° |
| 2026-05-05 07:25 | 44.57169 | 26.08515 | 320 ft | 21 kts | 354° |
| 2026-05-05 07:26 | 44.57319 | 26.08493 | 322 ft | 22 kts | 354° |
| 2026-05-05 07:26 | 44.57473 | 26.08470 | 319 ft | 22 kts | 354° |
| 2026-05-05 07:26 | 44.57614 | 26.08451 | 322 ft | 18 kts | 3° |
| 2026-05-05 07:26 | 44.57674 | 26.08588 | 323 ft | 23 kts | 84° |
| 2026-05-05 07:27 | 44.57719 | 26.09201 | 321 ft | 104 kts | 84° |
| 2026-05-05 07:27 | 44.57816 | 26.10523 | 412 ft | 160 kts | 84° |
| 2026-05-05 07:27 | 44.57929 | 26.12118 | 1194 ft | 162 kts | 85° |
| 2026-05-05 07:27 | 44.58035 | 26.13593 | 2301 ft | 149 kts | 84° |
| 2026-05-05 07:28 | 44.58147 | 26.15054 | 3121 ft | 150 kts | 81° |
| 2026-05-05 07:28 | 44.58272 | 26.16562 | 3840 ft | 163 kts | 79° |
| 2026-05-05 07:28 | 44.58420 | 26.18294 | 4214 ft | 195 kts | 79° |
| 2026-05-05 07:28 | 44.58591 | 26.20315 | 4481 ft | 222 kts | 79° |
| 2026-05-05 07:29 | 44.58783 | 26.22572 | 4938 ft | 239 kts | 79° |
| 2026-05-05 07:29 | 44.58984 | 26.24949 | 5443 ft | 254 kts | 79° |
| 2026-05-05 07:29 | 44.59122 | 26.27469 | 6209 ft | 266 kts | 91° |
| 2026-05-05 07:29 | 44.58578 | 26.29931 | 7256 ft | 273 kts | 113° |
| 2026-05-05 07:30 | 44.57405 | 26.32071 | 8269 ft | 283 kts | 131° |
| 2026-05-05 07:30 | 44.53683 | 26.34216 | 10185 ft | 306 kts | 169° |
| 2026-05-05 07:30 | 44.51516 | 26.34532 | 10761 ft | 324 kts | 171° |
| 2026-05-05 07:31 | 44.49176 | 26.34822 | 11119 ft | 347 kts | 172° |
| 2026-05-05 07:31 | 44.46749 | 26.35132 | 11869 ft | 354 kts | 172° |
| 2026-05-05 07:31 | 44.44291 | 26.35468 | 12814 ft | 356 kts | 172° |
| 2026-05-05 07:31 | 44.41811 | 26.35796 | 13713 ft | 362 kts | 176° |
| 2026-05-05 07:32 | 44.40131 | 26.35615 | 14208 ft | 369 kts | 191° |
| 2026-05-05 07:32 | 44.37766 | 26.34224 | 15037 ft | 373 kts | 215° |
| 2026-05-05 07:32 | 44.35937 | 26.31682 | 15904 ft | 372 kts | 238° |
| 2026-05-05 07:32 | 44.34864 | 26.28414 | 16771 ft | 371 kts | 256° |
| 2026-05-05 07:33 | 44.34130 | 26.24938 | 17602 ft | 375 kts | 257° |
| 2026-05-05 07:33 | 44.33435 | 26.21391 | 18402 ft | 381 kts | 258° |
| 2026-05-05 07:33 | 44.32727 | 26.17734 | 18683 ft | 400 kts | 258° |
| 2026-05-05 07:33 | 44.31977 | 26.13936 | 19132 ft | 410 kts | 257° |
| 2026-05-05 07:34 | 44.31198 | 26.10082 | 19834 ft | 413 kts | 257° |
| 2026-05-05 07:34 | 44.30401 | 26.06212 | 20589 ft | 415 kts | 257° |
| 2026-05-05 07:34 | 44.29595 | 26.02325 | 21268 ft | 419 kts | 256° |
| 2026-05-05 07:34 | 44.28778 | 25.98406 | 21918 ft | 423 kts | 256° |
| 2026-05-05 07:35 | 44.27951 | 25.94448 | 22571 ft | 427 kts | 256° |
| 2026-05-05 07:35 | 44.27114 | 25.90450 | 23235 ft | 430 kts | 256° |
| 2026-05-05 07:35 | 44.26272 | 25.86427 | 23844 ft | 434 kts | 256° |
| 2026-05-05 07:35 | 44.25423 | 25.82378 | 24400 ft | 437 kts | 256° |
| 2026-05-05 07:36 | 44.24565 | 25.78297 | 24962 ft | 439 kts | 256° |
| 2026-05-05 07:36 | 44.24027 | 25.74115 | 25462 ft | 438 kts | 271° |
| 2026-05-05 07:36 | 44.24004 | 25.69871 | 26058 ft | 438 kts | 273° |
| 2026-05-05 07:36 | 44.24023 | 25.65662 | 26583 ft | 441 kts | 273° |
| 2026-05-05 07:37 | 44.24040 | 25.61370 | 27066 ft | 444 kts | 273° |
| 2026-05-05 07:37 | 44.24038 | 25.57036 | 27554 ft | 448 kts | 272° |
| 2026-05-05 07:37 | 44.24019 | 25.52684 | 28039 ft | 450 kts | 272° |
| 2026-05-05 07:37 | 44.23988 | 25.48308 | 28508 ft | 453 kts | 272° |
| 2026-05-05 07:38 | 44.23950 | 25.43905 | 28963 ft | 456 kts | 272° |
| 2026-05-05 07:38 | 44.23909 | 25.39465 | 29405 ft | 459 kts | 272° |
| 2026-05-05 07:38 | 44.23868 | 25.35013 | 29929 ft | 459 kts | 272° |
| 2026-05-05 07:38 | 44.23825 | 25.30571 | 30544 ft | 456 kts | 272° |
| 2026-05-05 07:39 | 44.23760 | 25.26176 | 31130 ft | 454 kts | 268° |
| 2026-05-05 07:39 | 44.23086 | 25.21855 | 31576 ft | 460 kts | 251° |
| 2026-05-05 07:39 | 44.21527 | 25.17942 | 32040 ft | 465 kts | 236° |
| 2026-05-05 07:39 | 44.19579 | 25.14356 | 32558 ft | 464 kts | 234° |
| 2026-05-05 07:40 | 44.17581 | 25.10821 | 32985 ft | 464 kts | 234° |
| 2026-05-05 07:40 | 44.15572 | 25.07297 | 33400 ft | 464 kts | 234° |
| 2026-05-05 07:40 | 44.13602 | 25.03822 | 33848 ft | 463 kts | 234° |
| 2026-05-05 07:40 | 44.11620 | 25.00294 | 34282 ft | 462 kts | 235° |
| 2026-05-05 07:41 | 44.09654 | 24.96766 | 34663 ft | 460 kts | 235° |
| 2026-05-05 07:41 | 44.07699 | 24.93242 | 35026 ft | 460 kts | 235° |
| 2026-05-05 07:41 | 44.05751 | 24.89724 | 35389 ft | 459 kts | 235° |
| 2026-05-05 07:41 | 44.03804 | 24.86208 | 35748 ft | 458 kts | 235° |
| 2026-05-05 07:42 | 44.01863 | 24.82705 | 36057 ft | 458 kts | 235° |
| 2026-05-05 07:42 | 43.99918 | 24.79202 | 36038 ft | 456 kts | 235° |
| 2026-05-05 07:42 | 43.96091 | 24.72330 | 36060 ft | 445 kts | 235° |
| 2026-05-05 07:43 | 43.92310 | 24.65552 | 36072 ft | 444 kts | 235° |
| 2026-05-05 07:43 | 43.88543 | 24.58814 | 36071 ft | 445 kts | 235° |
| 2026-05-05 07:44 | 43.84745 | 24.52040 | 36068 ft | 445 kts | 235° |
| 2026-05-05 07:44 | 43.80939 | 24.45265 | 36067 ft | 445 kts | 235° |
| 2026-05-05 07:45 | 43.77132 | 24.38504 | 36069 ft | 445 kts | 235° |
| 2026-05-05 07:45 | 43.73342 | 24.31787 | 36067 ft | 446 kts | 235° |
| 2026-05-05 07:46 | 43.69002 | 24.25674 | 36073 ft | 453 kts | 212° |
| 2026-05-05 07:46 | 43.66080 | 24.23993 | 36061 ft | 458 kts | 195° |
| 2026-05-05 07:46 | 43.62910 | 24.23500 | 36097 ft | 459 kts | 183° |
| 2026-05-05 07:47 | 43.56502 | 24.23373 | 36072 ft | 461 kts | 181° |
| 2026-05-05 07:47 | 43.50078 | 24.23296 | 36064 ft | 462 kts | 182° |
| 2026-05-05 07:48 | 43.43643 | 24.23133 | 36068 ft | 463 kts | 182° |
| 2026-05-05 07:48 | 43.37241 | 24.22931 | 36076 ft | 463 kts | 182° |
| 2026-05-05 07:49 | 43.30787 | 24.22723 | 36071 ft | 464 kts | 182° |
| 2026-05-05 07:49 | 43.24330 | 24.22519 | 36073 ft | 464 kts | 182° |
| 2026-05-05 07:50 | 43.17868 | 24.22317 | 36074 ft | 465 kts | 182° |
| 2026-05-05 07:50 | 43.11396 | 24.22115 | 36078 ft | 465 kts | 182° |
| 2026-05-05 07:51 | 43.04929 | 24.21828 | 36073 ft | 465 kts | 184° |
| 2026-05-05 07:51 | 42.98470 | 24.21382 | 36076 ft | 464 kts | 184° |
| 2026-05-05 07:52 | 42.92012 | 24.20927 | 36080 ft | 464 kts | 184° |
| 2026-05-05 07:52 | 42.85557 | 24.20495 | 36079 ft | 464 kts | 184° |
| 2026-05-05 07:53 | 42.79109 | 24.20075 | 36078 ft | 464 kts | 184° |
| 2026-05-05 07:53 | 42.72704 | 24.19661 | 36067 ft | 464 kts | 184° |
| 2026-05-05 07:54 | 42.66254 | 24.19246 | 36078 ft | 463 kts | 184° |
| 2026-05-05 07:54 | 42.59809 | 24.18830 | 36074 ft | 463 kts | 184° |
| 2026-05-05 07:55 | 42.53371 | 24.18416 | 36067 ft | 462 kts | 184° |
| 2026-05-05 07:55 | 42.46954 | 24.18004 | 36070 ft | 461 kts | 184° |
| 2026-05-05 07:56 | 42.40542 | 24.17593 | 36074 ft | 461 kts | 184° |
| 2026-05-05 07:56 | 42.34170 | 24.17185 | 36069 ft | 461 kts | 184° |
| 2026-05-05 07:57 | 42.27741 | 24.16775 | 36073 ft | 462 kts | 184° |
| 2026-05-05 07:57 | 42.21314 | 24.16365 | 36075 ft | 462 kts | 184° |
| 2026-05-05 07:58 | 42.14872 | 24.15956 | 36075 ft | 463 kts | 185° |
| 2026-05-05 07:58 | 42.08451 | 24.15548 | 36071 ft | 465 kts | 184° |
| 2026-05-05 07:59 | 42.01979 | 24.15139 | 36076 ft | 466 kts | 185° |
| 2026-05-05 07:59 | 41.95486 | 24.14729 | 36072 ft | 467 kts | 185° |
| 2026-05-05 08:00 | 41.88983 | 24.14318 | 36073 ft | 468 kts | 185° |
| 2026-05-05 08:00 | 41.82475 | 24.13909 | 36072 ft | 468 kts | 185° |
| 2026-05-05 08:01 | 41.75968 | 24.13501 | 36074 ft | 468 kts | 185° |
| 2026-05-05 08:01 | 41.69512 | 24.13096 | 36079 ft | 467 kts | 185° |
| 2026-05-05 08:02 | 41.63019 | 24.12690 | 36066 ft | 466 kts | 185° |
| 2026-05-05 08:02 | 41.56543 | 24.12311 | 36062 ft | 466 kts | 182° |
| 2026-05-05 08:03 | 41.53296 | 24.12571 | 35846 ft | 470 kts | 173° |
| 2026-05-05 08:03 | 41.50097 | 24.13494 | 35604 ft | 469 kts | 167° |
| 2026-05-05 08:03 | 41.46941 | 24.14582 | 35354 ft | 470 kts | 166° |
| 2026-05-05 08:03 | 41.43774 | 24.15700 | 35139 ft | 472 kts | 166° |
| 2026-05-05 08:04 | 41.37389 | 24.17932 | 35064 ft | 473 kts | 166° |
| 2026-05-05 08:04 | 41.31024 | 24.20096 | 35064 ft | 472 kts | 167° |
| 2026-05-05 08:05 | 41.24699 | 24.22213 | 35064 ft | 471 kts | 167° |
| 2026-05-05 08:05 | 41.18342 | 24.24328 | 35066 ft | 471 kts | 167° |
| 2026-05-05 08:06 | 41.11985 | 24.26442 | 35061 ft | 471 kts | 167° |
| 2026-05-05 08:06 | 41.05616 | 24.28558 | 35073 ft | 471 kts | 167° |
| 2026-05-05 08:07 | 40.99256 | 24.30667 | 35080 ft | 471 kts | 167° |
| 2026-05-05 08:07 | 40.92887 | 24.32774 | 35078 ft | 472 kts | 167° |
| 2026-05-05 08:08 | 40.86511 | 24.34879 | 35077 ft | 473 kts | 167° |
| 2026-05-05 08:08 | 40.80119 | 24.36986 | 35073 ft | 474 kts | 167° |
| 2026-05-05 08:09 | 40.73721 | 24.39091 | 35077 ft | 474 kts | 167° |
| 2026-05-05 08:09 | 40.67316 | 24.41193 | 35075 ft | 475 kts | 167° |
| 2026-05-05 08:10 | 40.60939 | 24.43282 | 35076 ft | 475 kts | 167° |
| 2026-05-05 08:10 | 40.54518 | 24.45382 | 35076 ft | 475 kts | 167° |
| 2026-05-05 08:11 | 40.48096 | 24.47478 | 35074 ft | 475 kts | 167° |
| 2026-05-05 08:11 | 40.41673 | 24.49570 | 35076 ft | 475 kts | 167° |
| 2026-05-05 08:12 | 40.35256 | 24.51655 | 35078 ft | 475 kts | 167° |
| 2026-05-05 08:12 | 40.28849 | 24.53734 | 35075 ft | 474 kts | 167° |
| 2026-05-05 08:13 | 40.22477 | 24.55797 | 35074 ft | 474 kts | 167° |
| 2026-05-05 08:13 | 40.16059 | 24.57871 | 35076 ft | 474 kts | 167° |
| 2026-05-05 08:14 | 40.09642 | 24.59940 | 35077 ft | 474 kts | 167° |
| 2026-05-05 08:14 | 40.03274 | 24.61990 | 35074 ft | 474 kts | 167° |
| 2026-05-05 08:15 | 39.96863 | 24.64050 | 35077 ft | 474 kts | 167° |
| 2026-05-05 08:15 | 39.90448 | 24.66107 | 35077 ft | 474 kts | 167° |
| 2026-05-05 08:16 | 39.84019 | 24.68164 | 35078 ft | 475 kts | 167° |
| 2026-05-05 08:16 | 39.77637 | 24.70203 | 35081 ft | 475 kts | 168° |
| 2026-05-05 08:17 | 39.71213 | 24.72251 | 35082 ft | 475 kts | 168° |
| 2026-05-05 08:17 | 39.64788 | 24.74295 | 35085 ft | 475 kts | 168° |
| 2026-05-05 08:18 | 39.59437 | 24.75995 | 35084 ft | 476 kts | 168° |
| 2026-05-05 08:18 | 39.53002 | 24.78036 | 35084 ft | 476 kts | 168° |
| 2026-05-05 08:19 | 39.46565 | 24.80073 | 35086 ft | 476 kts | 168° |
| 2026-05-05 08:19 | 39.40124 | 24.82108 | 35088 ft | 476 kts | 168° |
| 2026-05-05 08:20 | 39.33721 | 24.84127 | 35089 ft | 476 kts | 168° |
| 2026-05-05 08:20 | 39.27279 | 24.86154 | 35091 ft | 476 kts | 168° |
| 2026-05-05 08:21 | 39.20834 | 24.88179 | 35087 ft | 476 kts | 168° |
| 2026-05-05 08:21 | 39.14388 | 24.90172 | 35088 ft | 476 kts | 171° |
| 2026-05-05 08:22 | 39.11112 | 24.90636 | 35089 ft | 472 kts | 182° |
| 2026-05-05 08:22 | 39.07846 | 24.90462 | 35091 ft | 468 kts | 190° |
| 2026-05-05 08:22 | 39.01580 | 24.88495 | 35095 ft | 462 kts | 201° |
| 2026-05-05 08:23 | 38.95440 | 24.86005 | 35087 ft | 462 kts | 201° |
| 2026-05-05 08:23 | 38.89315 | 24.83612 | 35087 ft | 463 kts | 201° |
| 2026-05-05 08:24 | 38.83136 | 24.81247 | 35088 ft | 464 kts | 201° |
| 2026-05-05 08:24 | 38.76942 | 24.78874 | 34591 ft | 463 kts | 201° |
| 2026-05-05 08:25 | 38.73868 | 24.77698 | 34137 ft | 458 kts | 201° |
| 2026-05-05 08:25 | 38.70828 | 24.76536 | 33617 ft | 454 kts | 201° |
| 2026-05-05 08:25 | 38.67813 | 24.75384 | 33108 ft | 449 kts | 201° |
| 2026-05-05 08:25 | 38.64830 | 24.74245 | 32625 ft | 445 kts | 201° |
| 2026-05-05 08:26 | 38.61877 | 24.73118 | 32156 ft | 441 kts | 201° |
| 2026-05-05 08:26 | 38.58943 | 24.71998 | 31692 ft | 437 kts | 201° |
| 2026-05-05 08:26 | 38.56045 | 24.70893 | 31241 ft | 433 kts | 201° |
| 2026-05-05 08:26 | 38.53165 | 24.69796 | 30795 ft | 430 kts | 201° |
| 2026-05-05 08:27 | 38.50309 | 24.68708 | 30352 ft | 427 kts | 201° |
| 2026-05-05 08:27 | 38.47470 | 24.67628 | 29860 ft | 424 kts | 201° |
| 2026-05-05 08:27 | 38.44683 | 24.66569 | 29375 ft | 421 kts | 201° |
| 2026-05-05 08:27 | 38.41890 | 24.65509 | 28919 ft | 416 kts | 201° |
| 2026-05-05 08:28 | 38.39129 | 24.64462 | 28458 ft | 412 kts | 201° |
| 2026-05-05 08:28 | 38.36399 | 24.63427 | 28021 ft | 407 kts | 201° |
| 2026-05-05 08:28 | 38.33693 | 24.62402 | 27570 ft | 404 kts | 201° |
| 2026-05-05 08:28 | 38.31009 | 24.61386 | 27136 ft | 400 kts | 201° |
| 2026-05-05 08:29 | 38.28351 | 24.60380 | 26705 ft | 396 kts | 200° |
| 2026-05-05 08:29 | 38.25720 | 24.59384 | 26286 ft | 392 kts | 200° |
| 2026-05-05 08:29 | 38.23113 | 24.58399 | 25874 ft | 389 kts | 200° |
| 2026-05-05 08:30 | 38.17972 | 24.56460 | 25059 ft | 382 kts | 200° |
| 2026-05-05 08:30 | 38.15443 | 24.55484 | 24658 ft | 378 kts | 201° |
| 2026-05-05 08:30 | 38.12954 | 24.54436 | 24272 ft | 375 kts | 202° |
| 2026-05-05 08:30 | 38.10529 | 24.53378 | 23877 ft | 373 kts | 202° |
| 2026-05-05 08:31 | 38.08081 | 24.52303 | 23445 ft | 370 kts | 202° |
| 2026-05-05 08:31 | 38.05655 | 24.51241 | 22997 ft | 367 kts | 202° |
| 2026-05-05 08:31 | 38.03246 | 24.50193 | 22582 ft | 364 kts | 202° |
| 2026-05-05 08:31 | 38.00858 | 24.49160 | 22174 ft | 360 kts | 202° |
| 2026-05-05 08:32 | 37.98493 | 24.48141 | 21795 ft | 357 kts | 202° |
| 2026-05-05 08:32 | 37.96152 | 24.47133 | 21392 ft | 355 kts | 202° |
| 2026-05-05 08:32 | 37.93821 | 24.46132 | 21000 ft | 352 kts | 202° |
| 2026-05-05 08:32 | 37.91509 | 24.45141 | 20615 ft | 349 kts | 202° |
| 2026-05-05 08:33 | 37.89217 | 24.44158 | 20240 ft | 347 kts | 202° |
| 2026-05-05 08:33 | 37.86938 | 24.43182 | 19863 ft | 344 kts | 202° |
| 2026-05-05 08:33 | 37.84678 | 24.42215 | 19487 ft | 342 kts | 202° |
| 2026-05-05 08:33 | 37.82428 | 24.41252 | 19116 ft | 340 kts | 202° |
| 2026-05-05 08:34 | 37.80187 | 24.40294 | 18740 ft | 339 kts | 202° |
| 2026-05-05 08:34 | 37.77987 | 24.39354 | 18367 ft | 338 kts | 202° |
| 2026-05-05 08:34 | 37.75761 | 24.38403 | 17946 ft | 336 kts | 202° |
| 2026-05-05 08:34 | 37.73553 | 24.37461 | 17544 ft | 334 kts | 202° |
| 2026-05-05 08:35 | 37.71357 | 24.36524 | 17158 ft | 332 kts | 201° |
| 2026-05-05 08:35 | 37.69171 | 24.35593 | 16780 ft | 330 kts | 201° |
| 2026-05-05 08:35 | 37.67006 | 24.34670 | 16416 ft | 328 kts | 201° |
| 2026-05-05 08:35 | 37.64846 | 24.33751 | 16055 ft | 327 kts | 201° |
| 2026-05-05 08:36 | 37.62699 | 24.32838 | 15686 ft | 325 kts | 201° |
| 2026-05-05 08:36 | 37.60558 | 24.31929 | 15327 ft | 324 kts | 201° |
| 2026-05-05 08:36 | 37.58448 | 24.30963 | 14953 ft | 321 kts | 210° |
| 2026-05-05 08:36 | 37.56743 | 24.29235 | 14602 ft | 311 kts | 236° |
| 2026-05-05 08:37 | 37.55771 | 24.26872 | 14279 ft | 301 kts | 258° |
| 2026-05-05 08:37 | 37.55476 | 24.24302 | 13887 ft | 295 kts | 270° |
| 2026-05-05 08:37 | 37.55385 | 24.21679 | 13179 ft | 304 kts | 272° |
| 2026-05-05 08:37 | 37.55327 | 24.19009 | 12674 ft | 306 kts | 272° |
| 2026-05-05 08:38 | 37.55269 | 24.16338 | 12274 ft | 303 kts | 272° |
| 2026-05-05 08:38 | 37.55207 | 24.13727 | 11895 ft | 301 kts | 271° |
| 2026-05-05 08:38 | 37.55138 | 24.11095 | 11538 ft | 299 kts | 271° |
| 2026-05-05 08:38 | 37.55064 | 24.08522 | 11413 ft | 288 kts | 271° |
| 2026-05-05 08:39 | 37.54990 | 24.06041 | 11227 ft | 281 kts | 271° |
| 2026-05-05 08:39 | 37.54917 | 24.03590 | 10874 ft | 280 kts | 271° |
| 2026-05-05 08:39 | 37.54843 | 24.01133 | 10513 ft | 280 kts | 271° |
| 2026-05-05 08:39 | 37.54767 | 23.98680 | 10194 ft | 279 kts | 270° |
| 2026-05-05 08:40 | 37.54691 | 23.96235 | 9850 ft | 278 kts | 270° |
| 2026-05-05 08:40 | 37.54613 | 23.93803 | 9499 ft | 277 kts | 270° |
| 2026-05-05 08:40 | 37.54536 | 23.91381 | 9154 ft | 276 kts | 270° |
| 2026-05-05 08:40 | 37.54458 | 23.88973 | 8816 ft | 275 kts | 270° |
| 2026-05-05 08:41 | 37.54380 | 23.86572 | 8478 ft | 274 kts | 270° |
| 2026-05-05 08:41 | 37.54302 | 23.84183 | 8151 ft | 272 kts | 270° |
| 2026-05-05 08:41 | 37.54226 | 23.81835 | 7828 ft | 271 kts | 270° |
| 2026-05-05 08:41 | 37.54148 | 23.79464 | 7500 ft | 270 kts | 270° |
| 2026-05-05 08:42 | 37.54069 | 23.77105 | 7173 ft | 269 kts | 270° |
| 2026-05-05 08:42 | 37.53990 | 23.74754 | 6866 ft | 268 kts | 270° |
| 2026-05-05 08:42 | 37.53912 | 23.72412 | 6541 ft | 267 kts | 270° |
| 2026-05-05 08:42 | 37.54315 | 23.70182 | 6168 ft | 262 kts | 304° |
| 2026-05-05 08:43 | 37.55667 | 23.68751 | 5868 ft | 254 kts | 341° |
| 2026-05-05 08:43 | 37.57396 | 23.68665 | 5525 ft | 253 kts | 15° |
| 2026-05-05 08:43 | 37.59012 | 23.69458 | 5391 ft | 243 kts | 23° |
| 2026-05-05 08:43 | 37.60506 | 23.70270 | 5284 ft | 223 kts | 21° |
| 2026-05-05 08:44 | 37.61896 | 23.70954 | 5088 ft | 211 kts | 19° |
| 2026-05-05 08:44 | 37.63265 | 23.71560 | 5018 ft | 207 kts | 18° |
| 2026-05-05 08:44 | 37.64639 | 23.72124 | 5010 ft | 208 kts | 17° |
| 2026-05-05 08:44 | 37.66008 | 23.72653 | 4999 ft | 209 kts | 16° |
| 2026-05-05 08:45 | 37.67399 | 23.73164 | 4840 ft | 206 kts | 15° |
| 2026-05-05 08:45 | 37.68785 | 23.73654 | 4448 ft | 208 kts | 14° |
| 2026-05-05 08:45 | 37.70180 | 23.74134 | 4106 ft | 206 kts | 14° |
| 2026-05-05 08:45 | 37.71564 | 23.74606 | 3736 ft | 206 kts | 13° |
| 2026-05-05 08:46 | 37.72949 | 23.75075 | 3423 ft | 204 kts | 14° |
| 2026-05-05 08:46 | 37.74295 | 23.75530 | 3274 ft | 200 kts | 13° |
| 2026-05-05 08:46 | 37.75570 | 23.76236 | 3187 ft | 203 kts | 30° |
| 2026-05-05 08:46 | 37.76749 | 23.77254 | 3091 ft | 207 kts | 34° |
| 2026-05-05 08:47 | 37.77916 | 23.78354 | 2956 ft | 212 kts | 34° |
| 2026-05-05 08:47 | 37.79081 | 23.79464 | 2781 ft | 206 kts | 34° |
| 2026-05-05 08:47 | 37.80193 | 23.80522 | 2619 ft | 194 kts | 34° |
| 2026-05-05 08:47 | 37.81263 | 23.81501 | 2475 ft | 188 kts | 34° |
| 2026-05-05 08:48 | 37.82325 | 23.82496 | 2425 ft | 194 kts | 34° |
| 2026-05-05 08:48 | 37.83413 | 23.83532 | 2195 ft | 199 kts | 35° |
| 2026-05-05 08:48 | 37.84489 | 23.84562 | 2013 ft | 186 kts | 35° |
| 2026-05-05 08:48 | 37.85471 | 23.85504 | 1932 ft | 168 kts | 35° |
| 2026-05-05 08:49 | 37.86378 | 23.86371 | 1740 ft | 158 kts | 34° |
| 2026-05-05 08:49 | 37.87201 | 23.87167 | 1674 ft | 139 kts | 35° |
| 2026-05-05 08:49 | 37.87961 | 23.87897 | 1464 ft | 138 kts | 36° |
| 2026-05-05 08:49 | 37.88748 | 23.88637 | 1195 ft | 140 kts | 33° |
| 2026-05-05 08:50 | 37.89516 | 23.89352 | 989 ft | 134 kts | 35° |
| 2026-05-05 08:50 | 37.90239 | 23.90046 | 850 ft | 131 kts | 37° |
| 2026-05-05 08:50 | 37.90996 | 23.90772 | 685 ft | 140 kts | 36° |
| 2026-05-05 08:50 | 37.91777 | 23.91521 | 494 ft | 139 kts | 37° |
| 2026-05-05 08:51 | 37.92538 | 23.92260 | 332 ft | 135 kts | 37° |
| 2026-05-05 08:51 | 37.93231 | 23.92922 | 289 ft | 113 kts | 36° |
| 2026-05-05 08:51 | 37.93763 | 23.93426 | 290 ft | 78 kts | 37° |
| 2026-05-05 08:51 | 37.94107 | 23.93756 | 298 ft | 50 kts | 37° |
| 2026-05-05 08:52 | 37.94269 | 23.94047 | 303 ft | 23 kts | 69° |
| 2026-05-05 08:52 | 37.94209 | 23.94128 | 300 ft | 12 kts | 202° |
| 2026-05-05 08:52 | 37.94146 | 23.94066 | 300 ft | 11 kts | 216° |
| 2026-05-05 08:52 | 37.94083 | 23.94005 | 299 ft | 12 kts | 217° |
| 2026-05-05 08:53 | 37.94006 | 23.93933 | 300 ft | 16 kts | 216° |
| 2026-05-05 08:53 | 37.93907 | 23.93839 | 299 ft | 20 kts | 217° |
| 2026-05-05 08:53 | 37.93786 | 23.93724 | 301 ft | 23 kts | 217° |
| 2026-05-05 08:53 | 37.93648 | 23.93593 | 300 ft | 26 kts | 217° |
| 2026-05-05 08:54 | 37.93507 | 23.93463 | 299 ft | 21 kts | 216° |
| 2026-05-05 08:54 | 37.93415 | 23.93463 | 299 ft | 15 kts | 129° |
| 2026-05-05 08:54 | 37.93357 | 23.93565 | 300 ft | 14 kts | 128° |
| 2026-05-05 08:54 | 37.93297 | 23.93663 | 300 ft | 14 kts | 127° |
| 2026-05-05 08:55 | 37.93233 | 23.93772 | 300 ft | 17 kts | 126° |
| 2026-05-05 08:55 | 37.93161 | 23.93891 | 301 ft | 17 kts | 127° |
| 2026-05-05 08:55 | 37.93094 | 23.94008 | 300 ft | 16 kts | 112° |
| 2026-05-05 08:55 | 37.93154 | 23.94111 | 303 ft | 16 kts | 36° |
| 2026-05-05 08:56 | 37.93239 | 23.94191 | 300 ft | 15 kts | 36° |
| 2026-05-05 08:56 | 37.93279 | 23.94292 | 301 ft | 14 kts | 118° |
| 2026-05-05 08:56 | 37.93222 | 23.94364 | 301 ft | 10 kts | 178° |
| 2026-05-05 08:56 | 37.93172 | 23.94322 | 300 ft | 0 kts | 217° |